• Join FlightAware (Why Join?)
  • Login
  • US Flag 
10:10PM EST


 

Airport Tracker/Info


-or-


 

Live Flight TrackerFlight Track Log ✈ EJA951 ✈ 14-Mar-2014 ✈ MYNN / NAS - KHPN

Flight Track Log - Related Links

Times and Time Zones

All times are in EDT time to prevent confusion due to time zone crossing. See the EJA951 flight status page for this flight to view local times or setup timezone preferences in your user account.

Time Position Orientation Groundspeed Altitude Reporting Facility
EDT Latitude Longitude Course Direction KTS MPH feet Rate Location/Type
04:02PM 25.0158 -77.3472 North 506 582 6,400  Level Miami Center
04:03PM 25.1078 -77.3408 North 353 406 9,700 2,460 Climbing Miami Center
04:04PM 25.1956 -77.3319 North 331 381 11,400 1,500 Climbing Miami Center
04:05PM 25.2939 -77.3092 12° North 337 388 13,000 1,560 Climbing Miami Center
04:06PM 25.4089 -77.2544 23° Northeast 350 403 14,900 1,740 Climbing Miami Center
04:07PM 25.5072 -77.2019 26° Northeast 371 427 16,500 1,500 Climbing Miami Center
04:08PM 25.5911 -77.1214 41° Northeast 391 450 18,000 1,500 Climbing Miami Center
04:09PM 25.6850 -77.0525 33° Northeast 391 450 19,600 1,560 Climbing Miami Center
04:10PM 25.7897 -77.0181 16° North 391 450 21,200 1,560 Climbing Miami Center
04:11PM 25.9025 -77.0181 360° North 386 444 22,800 1,560 Climbing Miami Center
04:12PM 26.0175 -77.0206 359° North 397 457 24,400 1,560 Climbing Miami Center
04:13PM 26.1364 -77.0208 360° North 410 472 26,000 1,560 Climbing Miami Center
04:14PM 26.2556 -77.0186 North 417 480 27,600 1,560 Climbing Miami Center
04:15PM 26.3769 -77.0117 North 422 486 29,200 1,500 Climbing Miami Center
04:16PM 26.4981 -77.0189 357° North 422 486 30,700 1,380 Climbing Miami Center
04:17PM 26.6086 -77.0561 343° North 422 486 32,000 1,320 Climbing Miami Center
04:18PM 26.7194 -77.0958 342° North 408 470 33,400 1,440 Climbing Miami Center
04:19PM 26.8383 -77.1475 339° North 408 470 34,900 1,380 Climbing Miami Center
04:20PM 26.9447 -77.1803 345° North 414 476 36,200 1,200 Climbing Miami Center
04:21PM 27.0556 -77.2272 339° North 414 476 37,400 1,200 Climbing Miami Center
04:22PM 27.1639 -77.2650 343° North 409 471 38,600 1,200 Climbing Miami Center
04:23PM 27.2767 -77.3119 340° North 414 476 39,800 1,140 Climbing Miami Center
04:24PM 27.3850 -77.3475 344° North 414 476 40,900 600 Climbing Miami Center
04:25PM 27.4978 -77.3925 341° North 408 470 41,000  Climbing Miami Center
04:26PM 27.6144 -77.4353 342° North 420 483 41,000  Level Miami Center
04:27PM 27.7250 -77.4803 340° North 450 518 41,000  Level Miami Center
04:28PM 27.8711 -77.5306 343° North 470 541 41,000  Level Miami Center
04:29PM 27.9919 -77.5806 340° North 470 541 41,000  Level Miami Center
04:30PM 28.1147 -77.6286 341° North 470 541 41,000  Level Miami Center
04:31PM 28.2233 -77.6433 353° North 480 552 41,000  Level Miami Center
04:32PM 28.3819 -77.6492 358° North 480 552 41,000  Level Miami Center
04:33PM 28.5156 -77.6572 357° North 480 552 41,000  Level Miami Center
04:34PM 28.6469 -77.6628 358° North 482 555 41,000  Level Miami Center
04:35PM 28.7806 -77.6686 358° North 477 549 41,000  Level Miami Center
04:36PM 28.9097 -77.6767 357° North 472 543 41,000  Level Miami Center
04:37PM 29.0392 -77.6847 357° North 472 543 41,000  Level Miami Center
04:38PM 29.1747 -77.6906 358° North 472 543 41,000  Level Miami Center
04:39PM 29.3061 -77.6986 357° North 478 550 41,000  Level Miami Center
04:41PM 29.5514 -77.7031 359° North 440 506 41,000  Level Jacksonville Center
04:42PM 29.6917 -77.7147 356° North 472 543 41,000  Level Jacksonville Center
04:43PM 29.8128 -77.7156 360° North 458 527 41,000  Level Jacksonville Center
04:44PM 29.9489 -77.7250 357° North 471 542 41,000  Level Jacksonville Center
04:45PM 30.0806 -77.7322 357° North 477 549 41,000  Level Jacksonville Center
04:46PM 30.2081 -77.7328 360° North 482 555 41,000  Level Jacksonville Center
04:47PM 30.3436 -77.7325 360° North 482 555 41,000  Level Jacksonville Center
04:48PM 30.4828 -77.7131 North 487 560 41,000  Level Jacksonville Center
04:49PM 30.6231 -77.6742 13° North 502 578 41,000  Level Jacksonville Center
04:50PM 30.7617 -77.6422 11° North 502 578 41,000  Level Jacksonville Center
04:51PM 30.9000 -77.6103 11° North 502 578 41,000  Level Jacksonville Center
04:52PM 31.0403 -77.5711 13° North 502 578 41,000  Level Jacksonville Center
04:53PM 31.1786 -77.5364 12° North 502 578 41,000  Level Jacksonville Center
04:54PM 31.3186 -77.4897 16° North 507 583 41,000  Level Jacksonville Center
04:55PM 31.4572 -77.4572 11° North 507 583 41,000  Level Jacksonville Center
04:56PM 31.5972 -77.4150 14° North 507 583 41,000  Level Jacksonville Center
04:57PM 31.7356 -77.3775 13° North 507 583 41,000  Level Jacksonville Center
04:58PM 31.8736 -77.3372 14° North 507 583 41,000  Level Jacksonville Center
04:59PM 32.0136 -77.2947 14° North 507 583 41,000  Level Jacksonville Center
05:00PM 32.1497 -77.2594 12° North 507 583 41,000  Level Jacksonville Center
05:01PM 32.2858 -77.2214 13° North 507 583 41,000  Level Jacksonville Center
05:02PM 32.4219 -77.1836 13° North 507 583 41,000  Level Jacksonville Center
05:03PM 32.5597 -77.1428 14° North 502 578 41,000  Level Jacksonville Center
05:04PM 32.6958 -77.1019 14° North 502 578 41,000  Level Jacksonville Center
05:06PM 32.9700 -77.0272 13° North 506 582 41,000  Level Washington Center
05:07PM 33.1061 -76.9900 13° North 506 582 41,000  Level Washington Center
05:08PM 33.2442 -76.9500 14° North 506 582 41,000  Level Washington Center
05:09PM 33.3803 -76.9075 15° North 506 582 41,000  Level Washington Center
05:10PM 33.5206 -76.8672 13° North 506 582 41,000  Level Washington Center
05:11PM 33.6544 -76.8269 14° North 506 582 41,000  Level Washington Center
05:12PM 33.7944 -76.7864 14° North 506 582 41,000  Level Washington Center
05:13PM 33.9472 -76.7411 14° North 499 574 41,000  Level Washington Center
05:14PM 34.0811 -76.7028 13° North 499 574 41,000  Level Washington Center
05:15PM 34.2192 -76.6644 13° North 499 574 41,000  Level Washington Center
05:16PM 34.3511 -76.6233 14° North 499 574 41,000  Level Washington Center
05:17PM 34.4847 -76.5822 14° North 494 568 41,000  Level Washington Center
05:18PM 34.6228 -76.5411 14° North 494 568 41,000  Level Washington Center
05:19PM 34.7567 -76.5022 13° North 487 560 41,000  Level Washington Center
05:20PM 34.8906 -76.4631 13° North 487 560 41,000  Level Washington Center
05:21PM 35.0244 -76.4214 14° North 487 560 41,000  Level Washington Center
05:22PM 35.1436 -76.3819 15° North 487 560 41,000  Level Washington Center
05:23PM 35.2775 -76.3400 14° North 487 560 41,000  Level Washington Center
05:24PM 35.4133 -76.3031 12° North 487 560 41,000  Level Washington Center
05:25PM 35.5492 -76.2608 14° North 487 560 41,000 -60 Level Washington Center
05:26PM 35.6869 -76.2161 15° North 493 567 40,900  Descending Washington Center
05:27PM 35.8228 -76.1786 13° North 493 567 41,000  Climbing Washington Center
05:28PM 35.9608 -76.1336 15° North 493 567 41,000  Level Washington Center
05:29PM 36.0986 -76.0908 14° North 493 567 41,000  Level Washington Center
05:30PM 36.2344 -76.0478 14° North 493 567 41,000  Level Washington Center
05:31PM 36.3681 -76.0097 13° North 493 567 41,000  Level Washington Center
05:32PM 36.4956 -75.9667 15° North 479 551 41,000  Level Washington Center
05:33PM 36.6269 -75.9258 14° North 479 551 41,000  Level Washington Center
05:34PM 36.7733 -75.8797 14° North 474 545 41,000  Level Washington Center
05:35PM 36.9069 -75.8386 14° North 480 552 41,000  Level Washington Center
05:36PM 37.0467 -75.7950 14° North 495 570 41,000  Level Washington Center
05:37PM 37.1803 -75.7508 15° North 501 577 41,000  Level Washington Center
05:38PM 37.3139 -75.7094 14° North 496 571 41,000  Level Washington Center
05:39PM 37.4453 -75.6650 15° North 485 558 41,000  Level Washington Center
05:40PM 37.5767 -75.6233 14° North 485 558 41,000  Level Washington Center
05:41PM 37.7081 -75.5814 14° North 485 558 41,000  Level Washington Center
05:42PM 37.8394 -75.5444 13° North 480 552 41,000  Level Washington Center
05:43PM 37.9686 -75.4942 17° North 480 552 41,000  Level Washington Center
05:44PM 38.0958 -75.4467 16° North 480 552 41,000  Level Washington Center
05:45PM 38.2208 -75.3697 26° Northeast 485 558 41,000  Level Washington Center
05:46PM 38.3269 -75.2925 30° Northeast 485 558 41,000  Level Washington Center
05:47PM 38.4497 -75.2206 25° Northeast 485 558 41,000  Level Washington Center
05:48PM 38.5664 -75.1431 27° Northeast 478 550 41,000 -60 Level Washington Center
05:49PM 38.6892 -75.0678 26° Northeast 478 550 40,900 -660 Descending Washington Center
05:50PM 38.8053 -74.9897 28° Northeast 473 544 39,800 -1,380 Descending Washington Center
05:51PM 38.9281 -74.9111 26° Northeast 473 544 38,200 -1,560 Descending Washington Center
05:52PM 39.0464 -74.8381 26° Northeast 468 539 36,700 -1,500 Descending Washington Center
05:53PM 39.1583 -74.7378 35° Northeast 474 545 35,200 -1,860 Descending Washington Center
05:54PM 39.2658 -74.6267 39° Northeast 488 562 33,100 -3,060 Descending Washington Center
05:56PM 39.4931 -74.3892 39° Northeast 474 545 25,700 -2,940 Descending New York Center
05:57PM 39.5922 -74.2864 39° Northeast 463 533 24,000 -1,080 Descending New York Center
05:58PM 39.6892 -74.1808 40° Northeast 458 527 23,600 -720 Descending New York Center
05:59PM 39.7878 -74.0803 38° Northeast 458 527 22,600 -1,020 Descending New York Center
06:02PM 40.0033 -73.8469 40° Northeast 427 491 20,200 -1,080 Descending Boston Center
06:03PM 40.0964 -73.7475 39° Northeast 432 497 19,200 -960 Descending Boston Center
06:04PM 40.1783 -73.6611 39° Northeast 421 484 18,300 -1,020 Descending Boston Center
06:05PM 40.2831 -73.5478 40° Northeast 409 471 17,200 -660 Descending Boston Center
06:06PM 40.3747 -73.4564 37° Northeast 412 474 17,000 -120 Descending Boston Center
06:07PM 40.4806 -73.4158 16° North 400 460 17,000 -300 Level Boston Center
06:08PM 40.5867 -73.3792 15° North 393 452 16,500 -840 Descending Boston Center
06:09PM 40.6769 -73.3467 15° North 337 388 15,300 -780 Descending Boston Center
06:10PM 40.7619 -73.3150 16° North 319 367 15,000 -840 Descending Boston Center
06:11PM 40.8261 -73.2339 44° Northeast 331 381 13,600 -1,560 Descending Boston Center
06:12PM 40.8750 -73.1350 57° Northeast 323 372 11,900 -1,320 Descending Boston Center
06:13PM 40.9247 -73.0353 57° Northeast 324 373 11,000 -1,020 Descending Boston Center
06:14PM 41.0000 -72.9500 41° Northeast 297 342 9,900 -1,500 Descending New York TRACON
06:15PM 41.0333 -73.0167 304° West 249 287 8,100 -1,800 Descending New York TRACON
06:16PM 41.0667 -73.1000 298° West 231 266 6,300 -1,800 Descending New York TRACON
06:17PM 41.0833 -73.1833 285° West 230 265 4,600 -1,140 Descending New York TRACON
06:18PM 41.1167 -73.2500 304° West 235 270 4,100 -300 Descending New York TRACON
06:19PM 41.1333 -73.3333 285° West 246 283 4,000 -420 Descending New York TRACON
06:20PM 41.1500 -73.4167 285° West 227 261 3,300 -480 Descending New York TRACON
06:21PM 41.1667 -73.5000 285° West 225 259 3,100 -180 Descending New York TRACON
06:22PM 41.1833 -73.5833 285° West 226 260 3,000  Descending New York TRACON
06:23PM 41.1833 -73.6667 270° West 195 224 3,100 -300 Climbing New York TRACON
06:25PM 41.1667 -73.7500 255° West 153 176 2,100 -540 Descending New York TRACON
06:27PM 41.0903 -73.7267 167° South 138 159 900 -420 Descending Boston Center
06:28PM 41.0597 -73.7056 152° Southeast 135 155 800 -120 Descending Boston Center
06:30PM 41.0667 -73.7000 North  Level FlightAware Approximate